Time;durP1;ratioP1;P1;durP2;ratioP2;P2;SDS_P1;SDS_P2;PMS_P1;PMS_P2;Temp;Humidity;BMP_temperature;BMP_pressure;BME280_temperature;BME280_humidity;BME280_pressure;Samples;Min_cycle;Max_cycle;Signal;HPM_P1;HPM_P2
2024/04/09 00:01:34;;;;;;;16.20;6.23;;;11.20;99.90;;;;;;4564752;25;20001;-56
2024/04/09 00:03:37;;;;;;;20.77;6.17;;;11.20;99.90;;;;;;4564984;25;19997;-58
2024/04/09 00:05:43;;;;;;;8.67;5.20;;;11.10;99.90;;;;;;4564393;25;19994;-54
2024/04/09 00:07:44;;;;;;;10.30;4.83;;;11.10;99.90;;;;;;4563480;26;20005;-56
2024/04/09 00:09:46;;;;;;;8.50;4.47;;;11.10;99.90;;;;;;4564850;25;20013;-56
2024/04/09 00:11:49;;;;;;;9.10;5.40;;;11.10;99.90;;;;;;4565789;26;20072;-55
2024/04/09 00:13:57;;;;;;;9.23;5.30;;;11.10;99.90;;;;;;4563486;26;20397;-52
2024/04/09 00:16:00;;;;;;;10.17;5.17;;;11.10;99.90;;;;;;4565629;26;20073;-53
2024/04/09 00:18:17;;;;;;;7.07;4.83;;;11.10;99.90;;;;;;4562149;25;20013;-54
2024/04/09 00:20:18;;;;;;;10.57;4.93;;;11.10;99.90;;;;;;4563007;25;20058;-55
2024/04/09 00:22:23;;;;;;;9.83;4.37;;;11.10;99.90;;;;;;4564545;25;20555;-52
2024/04/09 00:24:25;;;;;;;7.00;4.97;;;11.10;99.90;;;;;;4566788;26;20001;-56
2024/04/09 00:26:29;;;;;;;10.00;5.23;;;11.10;99.90;;;;;;4564427;26;20409;-54
2024/04/09 00:28:30;;;;;;;12.07;4.97;;;11.00;99.90;;;;;;4566947;25;20072;-56
2024/04/09 00:30:32;;;;;;;14.60;5.23;;;11.00;99.90;;;;;;4564763;25;20009;-55
2024/04/09 00:32:33;;;;;;;6.47;4.40;;;11.00;99.90;;;;;;4565463;25;20009;-55
2024/04/09 00:34:34;;;;;;;8.67;4.97;;;11.00;99.90;;;;;;4564868;26;20480;-54
2024/04/09 00:36:37;;;;;;;7.20;4.33;;;10.90;99.90;;;;;;4565305;25;20009;-55
2024/04/09 00:38:41;;;;;;;6.80;4.30;;;10.80;99.90;;;;;;4562975;26;19997;-59
2024/04/09 00:40:42;;;;;;;7.93;5.03;;;10.80;99.90;;;;;;4565200;25;20069;-54
2024/04/09 00:42:43;;;;;;;8.13;5.10;;;10.80;99.90;;;;;;4562883;26;20076;-55
2024/04/09 00:44:45;;;;;;;6.83;4.13;;;10.80;99.90;;;;;;4564437;25;20329;-57
2024/04/09 00:46:49;;;;;;;9.13;4.73;;;10.80;99.90;;;;;;4563671;26;20412;-52
2024/04/09 00:48:51;;;;;;;10.07;4.67;;;10.80;99.90;;;;;;4566015;26;19998;-56
2024/04/09 00:50:53;;;;;;;8.00;5.40;;;10.70;99.90;;;;;;4567800;25;20014;-56
2024/04/09 00:52:55;;;;;;;8.10;4.43;;;10.60;99.90;;;;;;4566761;25;20856;-56
2024/04/09 00:54:57;;;;;;;11.33;5.20;;;10.50;99.90;;;;;;4565751;26;20099;-55
2024/04/09 00:56:59;;;;;;;12.10;5.63;;;10.40;99.90;;;;;;4565393;25;20005;-56
2024/04/09 00:59:01;;;;;;;11.00;5.57;;;10.40;99.90;;;;;;4571557;26;20390;-56
2024/04/09 01:01:03;;;;;;;9.57;5.17;;;10.30;99.90;;;;;;4570441;26;20069;-53
2024/04/09 01:03:05;;;;;;;12.03;5.33;;;10.30;99.90;;;;;;4571383;25;20386;-55
2024/04/09 01:05:08;;;;;;;8.00;4.57;;;10.40;99.90;;;;;;4569249;25;20061;-52
2024/04/09 01:07:09;;;;;;;19.73;6.00;;;10.40;99.90;;;;;;4573005;25;20005;-54
2024/04/09 01:09:10;;;;;;;11.67;4.93;;;10.40;99.90;;;;;;4569168;25;20065;-58
2024/04/09 01:11:12;;;;;;;9.63;5.10;;;10.30;99.90;;;;;;4570608;25;20005;-54
2024/04/09 01:13:13;;;;;;;9.97;4.80;;;10.30;99.90;;;;;;4569458;25;20089;-53
2024/04/09 01:15:14;;;;;;;8.90;4.63;;;10.30;99.90;;;;;;4558249;25;20006;-51
2024/04/09 01:17:15;;;;;;;10.93;5.00;;;10.30;99.90;;;;;;4539290;26;19998;-53
2024/04/09 01:19:17;;;;;;;7.00;4.70;;;10.30;99.90;;;;;;4539625;26;20043;-56
2024/04/09 01:21:18;;;;;;;6.63;4.73;;;10.30;99.90;;;;;;4539573;26;19994;-55
2024/04/09 01:23:19;;;;;;;8.20;4.47;;;10.30;99.90;;;;;;4539216;26;20006;-55
2024/04/09 01:25:21;;;;;;;7.07;4.40;;;10.30;99.90;;;;;;4539810;26;20069;-55
2024/04/09 01:27:22;;;;;;;5.80;4.13;;;10.30;99.90;;;;;;4539017;26;20006;-50
2024/04/09 01:29:23;;;;;;;6.13;4.53;;;10.20;99.90;;;;;;4540174;26;20062;-51
2024/04/09 01:31:25;;;;;;;8.97;4.87;;;10.10;99.90;;;;;;4538946;26;20005;-55
2024/04/09 01:33:27;;;;;;;7.73;4.33;;;10.10;99.90;;;;;;4540247;26;19994;-53
2024/04/09 01:35:30;;;;;;;9.00;5.00;;;10.10;99.90;;;;;;4538768;26;20009;-57
2024/04/09 01:37:31;;;;;;;9.13;4.57;;;10.10;99.90;;;;;;4540024;26;20077;-55
2024/04/09 01:39:35;;;;;;;10.13;4.80;;;10.10;99.90;;;;;;4538798;26;20327;-54
2024/04/09 01:41:36;;;;;;;9.33;3.87;;;10.10;99.90;;;;;;4540677;26;20006;-51
2024/04/09 01:43:38;;;;;;;10.13;4.40;;;10.00;99.90;;;;;;4538749;26;19998;-55
2024/04/09 01:45:39;;;;;;;9.07;4.43;;;10.10;99.90;;;;;;4540110;26;20506;-50
2024/04/09 01:47:40;;;;;;;6.73;4.27;;;10.00;99.90;;;;;;4538881;26;20010;-50
2024/04/09 01:49:41;;;;;;;7.90;4.63;;;10.00;99.90;;;;;;4539708;26;19995;-52
2024/04/09 01:51:43;;;;;;;11.80;4.60;;;10.00;99.90;;;;;;4550665;25;20013;-55
2024/04/09 01:53:46;;;;;;;8.33;4.97;;;10.00;99.90;;;;;;4569055;25;19994;-54
2024/04/09 01:55:47;;;;;;;6.40;4.40;;;10.00;99.90;;;;;;4570152;26;20064;-55
2024/04/09 01:57:49;;;;;;;6.27;3.80;;;10.00;99.90;;;;;;4568766;25;19997;-50
2024/04/09 01:59:51;;;;;;;5.50;4.43;;;10.00;99.90;;;;;;4568519;25;20013;-56
2024/04/09 02:01:55;;;;;;;9.37;4.67;;;9.90;99.90;;;;;;4568478;25;20005;-50
2024/04/09 02:03:56;;;;;;;9.20;4.77;;;9.90;99.90;;;;;;4570069;26;20073;-54
2024/04/09 02:05:57;;;;;;;21.43;6.27;;;9.80;99.90;;;;;;4568757;25;20064;-56
2024/04/09 02:07:59;;;;;;;9.87;4.27;;;9.80;99.90;;;;;;4568944;25;20110;-56
2024/04/09 02:10:00;;;;;;;7.70;4.50;;;9.80;99.90;;;;;;4566824;25;20326;-54
2024/04/09 02:12:03;;;;;;;13.07;5.23;;;9.70;99.90;;;;;;4569556;26;20010;-54
2024/04/09 02:14:04;;;;;;;8.80;4.67;;;9.70;99.90;;;;;;4564936;25;19997;-54
2024/04/09 02:16:09;;;;;;;10.20;4.80;;;9.70;99.90;;;;;;4568217;25;20009;-55
2024/04/09 02:18:10;;;;;;;9.83;5.30;;;9.60;99.90;;;;;;4568593;25;20009;-55
2024/04/09 02:20:13;;;;;;;8.93;5.00;;;9.50;99.90;;;;;;4566731;25;20838;-56
2024/04/09 02:22:14;;;;;;;8.33;4.73;;;9.50;99.90;;;;;;4564891;26;20084;-56
2024/04/09 02:24:15;;;;;;;9.70;4.93;;;9.50;99.90;;;;;;4566903;25;20005;-52
2024/04/09 02:26:17;;;;;;;6.73;4.43;;;9.50;99.90;;;;;;4568350;25;20005;-54
2024/04/09 02:28:18;;;;;;;8.40;4.60;;;9.50;99.90;;;;;;4568626;25;19993;-56
2024/04/09 02:30:20;;;;;;;8.00;4.97;;;9.50;99.90;;;;;;4566949;25;20021;-56
2024/04/09 02:32:21;;;;;;;6.13;4.63;;;9.40;99.90;;;;;;4565409;25;20013;-57
2024/04/09 02:34:24;;;;;;;7.80;4.67;;;9.50;99.90;;;;;;4566296;25;20046;-54
2024/04/09 02:36:25;;;;;;;8.70;5.53;;;9.40;99.90;;;;;;4564592;25;22127;-55
2024/04/09 02:38:29;;;;;;;12.23;4.90;;;9.40;99.90;;;;;;4566391;25;20073;-57
2024/04/09 02:40:30;;;;;;;6.43;4.10;;;9.40;99.90;;;;;;4568482;25;19997;-56
2024/04/09 02:42:31;;;;;;;6.90;4.47;;;9.30;99.90;;;;;;4569174;25;20521;-55
2024/04/09 02:44:32;;;;;;;6.07;4.10;;;9.30;99.90;;;;;;4568336;26;20410;-54
2024/04/09 02:46:34;;;;;;;9.27;5.90;;;9.30;99.90;;;;;;4569777;26;20501;-54
2024/04/09 02:48:35;;;;;;;7.70;4.63;;;9.30;99.90;;;;;;4567758;25;20005;-54
2024/04/09 02:50:37;;;;;;;11.20;5.13;;;9.20;99.90;;;;;;4569412;25;20009;-56
2024/04/09 02:52:38;;;;;;;6.37;4.70;;;9.20;99.90;;;;;;4568049;25;20072;-53
2024/04/09 02:54:40;;;;;;;9.13;5.43;;;9.20;99.90;;;;;;4568858;26;20009;-55
2024/04/09 02:56:41;;;;;;;7.97;5.10;;;9.20;99.90;;;;;;4568240;25;20252;-54
2024/04/09 02:58:43;;;;;;;5.60;4.93;;;9.20;99.90;;;;;;4569465;25;20005;-55
2024/04/09 03:00:44;;;;;;;11.23;5.63;;;9.20;99.90;;;;;;4568674;25;19997;-56
2024/04/09 03:02:52;;;;;;;13.27;5.30;;;9.20;99.90;;;;;;4567992;26;20853;-54
2024/04/09 03:04:54;;;;;;;7.73;5.00;;;9.10;99.90;;;;;;4563395;26;20698;-53
2024/04/09 03:06:55;;;;;;;8.53;5.50;;;9.10;99.90;;;;;;4565283;26;20068;-54
2024/04/09 03:08:56;;;;;;;7.17;5.20;;;9.10;99.90;;;;;;4564556;25;20410;-55
2024/04/09 03:10:57;;;;;;;7.67;4.40;;;9.00;99.90;;;;;;4566183;25;20068;-56
2024/04/09 03:12:58;;;;;;;5.53;3.50;;;9.00;99.90;;;;;;4565931;26;20065;-56
2024/04/09 03:15:00;;;;;;;7.80;4.47;;;8.80;99.90;;;;;;4563853;26;20407;-57
2024/04/09 03:17:01;;;;;;;6.23;4.60;;;8.80;99.90;;;;;;4568048;25;20073;-52
2024/04/09 03:19:03;;;;;;;6.57;4.80;;;8.70;99.90;;;;;;4567010;25;19997;-56
2024/04/09 03:21:04;;;;;;;10.10;6.60;;;8.50;99.90;;;;;;4567358;25;20072;-53
2024/04/09 03:23:06;;;;;;;12.40;6.13;;;8.40;99.90;;;;;;4565072;25;20013;-56
2024/04/09 03:25:07;;;;;;;8.23;5.77;;;8.20;99.90;;;;;;4566916;25;20069;-54
2024/04/09 03:27:08;;;;;;;9.13;5.80;;;8.10;99.90;;;;;;4568225;26;19993;-56
2024/04/09 03:29:10;;;;;;;9.90;6.60;;;8.00;99.90;;;;;;4567767;25;20497;-54
2024/04/09 03:31:11;;;;;;;8.63;6.73;;;7.90;99.90;;;;;;4568175;26;20088;-50
2024/04/09 03:33:12;;;;;;;15.20;6.93;;;7.80;99.90;;;;;;4568143;25;20088;-52
2024/04/09 03:35:13;;;;;;;9.90;6.43;;;7.80;99.90;;;;;;4568569;26;19993;-53
2024/04/09 03:37:15;;;;;;;13.43;7.07;;;7.80;99.90;;;;;;4564917;26;20068;-57
2024/04/09 03:39:16;;;;;;;13.67;7.87;;;7.80;99.90;;;;;;4568838;25;20061;-57
2024/04/09 03:41:18;;;;;;;12.10;7.23;;;7.70;99.90;;;;;;4567616;25;20001;-55
2024/04/09 03:43:19;;;;;;;9.87;6.63;;;7.70;99.90;;;;;;4566953;26;20397;-57
2024/04/09 03:45:21;;;;;;;17.07;8.23;;;7.70;99.90;;;;;;4565184;26;20001;-55
2024/04/09 03:47:22;;;;;;;12.43;8.20;;;7.70;99.90;;;;;;4568307;25;20405;-56
2024/04/09 03:49:23;;;;;;;13.87;6.77;;;7.70;99.90;;;;;;4566584;26;20497;-57
2024/04/09 03:51:24;;;;;;;13.33;8.50;;;7.70;99.90;;;;;;4565860;25;20061;-56
2024/04/09 03:53:26;;;;;;;11.33;6.77;;;7.80;99.90;;;;;;4565096;26;19998;-54
2024/04/09 03:55:27;;;;;;;12.33;7.70;;;7.90;99.90;;;;;;4566548;25;19998;-55
2024/04/09 03:57:28;;;;;;;11.00;7.37;;;8.00;99.90;;;;;;4563891;26;20013;-51
2024/04/09 03:59:35;;;;;;;16.87;7.43;;;8.10;99.90;;;;;;4565617;26;20050;-55
2024/04/09 04:01:37;;;;;;;18.67;7.37;;;8.10;99.90;;;;;;4563623;25;20088;-57
2024/04/09 04:03:44;;;;;;;12.70;7.83;;;8.20;99.90;;;;;;4564878;25;20100;-50
2024/04/09 04:06:12;;;;;;;19.37;8.03;;;8.40;99.90;;;;;;4563463;26;20160;-55
2024/04/09 04:08:13;;;;;;;16.27;7.47;;;8.70;99.90;;;;;;4559336;25;20017;-51
2024/04/09 04:10:14;;;;;;;13.13;7.60;;;8.90;99.90;;;;;;4564507;25;20072;-55
2024/04/09 04:12:15;;;;;;;15.20;7.30;;;9.00;99.90;;;;;;4568136;25;20009;-50
2024/04/09 04:14:17;;;;;;;19.67;7.33;;;9.20;99.90;;;;;;4569671;25;20396;-54
2024/04/09 04:16:19;;;;;;;18.93;7.60;;;9.30;99.90;;;;;;4569742;25;20938;-53
2024/04/09 04:18:20;;;;;;;15.00;7.23;;;9.30;99.90;;;;;;4567607;26;20005;-52
2024/04/09 04:20:21;;;;;;;13.77;7.33;;;9.40;99.90;;;;;;4562823;26;20438;-58
2024/04/09 04:22:24;;;;;;;13.30;7.13;;;9.60;99.90;;;;;;4567890;25;20544;-56
2024/04/09 04:24:28;;;;;;;11.83;7.37;;;9.70;99.90;;;;;;4567562;26;20065;-52
2024/04/09 04:26:29;;;;;;;15.17;7.10;;;9.80;99.90;;;;;;4568372;25;20073;-50
2024/04/09 04:28:32;;;;;;;11.30;7.13;;;10.00;99.90;;;;;;4567287;26;20505;-52
2024/04/09 04:30:33;;;;;;;15.27;6.50;;;10.30;99.90;;;;;;4567488;25;20001;-51
2024/04/09 04:32:34;;;;;;;13.03;6.40;;;10.70;99.90;;;;;;4565367;25;20070;-55
2024/04/09 04:34:36;;;;;;;16.07;7.43;;;11.00;99.90;;;;;;4567038;25;20069;-50
2024/04/09 04:36:37;;;;;;;12.73;7.33;;;11.40;99.90;;;;;;4567483;26;19998;-51
2024/04/09 04:38:40;;;;;;;17.83;7.00;;;11.70;99.90;;;;;;4567436;25;20069;-54
2024/04/09 04:40:41;;;;;;;17.27;6.57;;;12.10;99.90;;;;;;4566565;25;20065;-54
2024/04/09 04:42:43;;;;;;;15.20;6.13;;;12.40;99.90;;;;;;4567026;25;20422;-53
2024/04/09 04:44:44;;;;;;;9.77;5.57;;;12.70;99.90;;;;;;4566463;25;19993;-55
2024/04/09 04:46:45;;;;;;;12.73;6.13;;;13.10;99.90;;;;;;4567259;25;20009;-54
2024/04/09 04:48:46;;;;;;;16.07;6.00;;;13.40;99.90;;;;;;4565861;25;19997;-53
2024/04/09 04:50:49;;;;;;;8.67;5.40;;;13.70;99.90;;;;;;4566254;26;20064;-56
2024/04/09 04:52:50;;;;;;;18.30;5.83;;;14.00;99.90;;;;;;4566488;25;20006;-55
2024/04/09 04:54:51;;;;;;;11.03;5.40;;;14.30;99.90;;;;;;4565726;25;20001;-54
2024/04/09 04:56:52;;;;;;;12.77;5.57;;;14.60;99.90;;;;;;4567608;25;20425;-56
2024/04/09 04:58:53;;;;;;;10.70;5.03;;;14.90;99.90;;;;;;4566703;25;20378;-55
2024/04/09 05:00:55;;;;;;;11.50;5.50;;;15.20;99.90;;;;;;4566586;25;20001;-53
2024/04/09 05:02:59;;;;;;;11.82;4.63;;;15.50;99.90;;;;;;4566325;26;20014;-54
2024/04/09 05:05:00;;;;;;;10.35;5.20;;;15.70;99.90;;;;;;4567373;25;20497;-54
2024/04/09 05:07:01;;;;;;;8.95;4.45;;;15.70;99.90;;;;;;4565878;25;20002;-53
2024/04/09 05:09:07;;;;;;;12.07;5.72;;;16.00;99.90;;;;;;4566994;25;19993;-52
2024/04/09 05:11:09;;;;;;;8.10;4.05;;;16.30;99.90;;;;;;4565623;25;20001;-53
2024/04/09 05:13:10;;;;;;;8.48;4.32;;;16.60;99.90;;;;;;4567328;26;20430;-54
2024/04/09 05:15:12;;;;;;;6.43;4.60;;;16.70;99.90;;;;;;4565680;25;20076;-57
2024/04/09 05:17:14;;;;;;;9.32;4.25;;;16.70;99.90;;;;;;4566656;25;20068;-56
2024/04/09 05:19:15;;;;;;;11.73;5.05;;;16.70;99.90;;;;;;4565872;25;20397;-54
2024/04/09 05:21:16;;;;;;;10.52;4.82;;;16.70;99.90;;;;;;4565982;25;19993;-51
2024/04/09 05:23:17;;;;;;;7.90;4.45;;;16.80;99.90;;;;;;4566145;25;20037;-51
2024/04/09 05:25:19;;;;;;;16.13;4.97;;;17.00;99.90;;;;;;4566168;26;20157;-52
2024/04/09 05:27:20;;;;;;;15.35;6.07;;;17.40;99.90;;;;;;4566339;25;20005;-54
2024/04/09 05:29:21;;;;;;;12.15;5.85;;;17.70;99.90;;;;;;4565214;25;20002;-51
2024/04/09 05:31:22;;;;;;;7.70;4.93;;;18.00;99.90;;;;;;4567315;26;20012;-54
2024/04/09 05:33:23;;;;;;;15.45;5.65;;;17.80;99.90;;;;;;4564457;25;20402;-55
2024/04/09 05:35:26;;;;;;;9.98;5.47;;;17.60;99.90;;;;;;4566147;25;20430;-56
2024/04/09 05:37:28;;;;;;;17.58;6.97;;;17.40;99.90;;;;;;4564812;25;20009;-57
2024/04/09 05:39:29;;;;;;;21.08;7.30;;;17.50;99.90;;;;;;4565795;25;20376;-53
2024/04/09 05:41:31;;;;;;;19.75;8.82;;;17.60;99.90;;;;;;4564730;25;20083;-54
2024/04/09 05:43:32;;;;;;;21.25;9.73;;;17.70;99.90;;;;;;4566860;25;20005;-56
2024/04/09 05:45:33;;;;;;;19.85;9.35;;;17.80;99.90;;;;;;4568767;25;20009;-55
2024/04/09 05:47:35;;;;;;;19.70;8.43;;;17.80;99.90;;;;;;4568265;25;20009;-55
2024/04/09 05:49:36;;;;;;;20.92;8.43;;;18.10;99.90;;;;;;4569248;26;20096;-55
2024/04/09 05:51:37;;;;;;;20.50;7.55;;;18.00;99.90;;;;;;4568692;25;20005;-56
2024/04/09 05:53:39;;;;;;;25.02;7.95;;;17.70;99.90;;;;;;4569823;25;20010;-55
2024/04/09 05:55:40;;;;;;;23.73;8.45;;;17.20;99.90;;;;;;4568355;25;20408;-53
2024/04/09 05:57:41;;;;;;;27.63;8.52;;;17.30;99.90;;;;;;4570338;25;20001;-56
2024/04/09 05:59:43;;;;;;;15.82;6.90;;;17.80;99.90;;;;;;4566400;26;20417;-55
2024/04/09 06:01:44;;;;;;;21.80;7.70;;;18.30;99.90;;;;;;4569559;25;20789;-54
2024/04/09 06:03:45;;;;;;;24.17;8.77;;;18.90;99.10;;;;;;4568098;25;20394;-54
2024/04/09 06:05:47;;;;;;;20.95;8.13;;;19.60;98.60;;;;;;4568896;25;20005;-55
2024/04/09 06:07:48;;;;;;;14.40;7.03;;;19.90;97.80;;;;;;4568479;26;20002;-55
2024/04/09 06:09:50;;;;;;;19.08;7.47;;;20.30;97.10;;;;;;4569807;26;20005;-51
2024/04/09 06:11:51;;;;;;;22.13;7.47;;;20.30;96.60;;;;;;4569010;26;20064;-52
2024/04/09 06:13:53;;;;;;;22.73;7.05;;;20.50;96.20;;;;;;4569253;25;19994;-53
2024/04/09 06:15:54;;;;;;;22.95;7.53;;;20.50;96.00;;;;;;4568086;25;20010;-52
2024/04/09 06:17:55;;;;;;;19.38;7.32;;;20.80;95.90;;;;;;4568944;25;20120;-52
2024/04/09 06:19:58;;;;;;;17.02;7.82;;;21.30;95.40;;;;;;4568515;25;19993;-54
2024/04/09 06:21:59;;;;;;;16.05;7.68;;;21.50;94.80;;;;;;4569455;26;20068;-54
2024/04/09 06:24:01;;;;;;;11.38;7.22;;;21.50;94.40;;;;;;4568514;25;20092;-56
2024/04/09 06:26:02;;;;;;;16.30;7.30;;;21.50;94.20;;;;;;4568858;26;20005;-56
2024/04/09 06:28:04;;;;;;;19.40;7.70;;;21.70;93.90;;;;;;4568983;25;20068;-58
2024/04/09 06:30:07;;;;;;;17.27;6.78;;;21.40;93.60;;;;;;4568589;26;20489;-56
2024/04/09 06:32:11;;;;;;;13.93;6.95;;;21.10;93.80;;;;;;4569131;25;20425;-54
2024/04/09 06:34:12;;;;;;;10.15;5.72;;;21.50;93.80;;;;;;4568233;26;19997;-55
2024/04/09 06:36:14;;;;;;;16.30;6.55;;;21.90;93.20;;;;;;4569068;25;20077;-55
2024/04/09 06:38:19;;;;;;;12.18;5.97;;;21.70;93.00;;;;;;4567496;25;19993;-53
2024/04/09 06:40:22;;;;;;;15.57;5.47;;;20.80;93.30;;;;;;4569788;25;20132;-56
2024/04/09 06:42:23;;;;;;;9.10;5.25;;;20.80;93.50;;;;;;4567769;25;20068;-57
2024/04/09 06:44:24;;;;;;;10.38;5.55;;;20.10;94.00;;;;;;4568856;25;20064;-55
2024/04/09 06:46:27;;;;;;;11.57;5.68;;;19.90;94.40;;;;;;4567186;25;20365;-56
2024/04/09 06:48:28;;;;;;;8.10;5.38;;;19.80;94.30;;;;;;4569534;25;20445;-56
2024/04/09 06:50:29;;;;;;;7.22;4.90;;;19.40;94.60;;;;;;4567815;25;20109;-55
2024/04/09 06:52:31;;;;;;;6.25;5.15;;;19.40;94.90;;;;;;4567716;25;19993;-54
2024/04/09 06:54:32;;;;;;;8.82;5.35;;;19.40;94.90;;;;;;4567041;25;19993;-53
2024/04/09 06:56:33;;;;;;;11.10;5.22;;;19.50;94.90;;;;;;4567389;25;20005;-58
2024/04/09 06:58:34;;;;;;;7.93;5.18;;;19.30;94.90;;;;;;4567461;25;19990;-53
2024/04/09 07:00:36;;;;;;;9.75;5.93;;;19.30;95.00;;;;;;4566907;25;20065;-55
2024/04/09 07:02:37;;;;;;;12.75;4.93;;;19.20;95.20;;;;;;4568182;25;19993;-55
2024/04/09 07:04:38;;;;;;;9.50;5.20;;;19.10;95.30;;;;;;4567276;25;20064;-59
2024/04/09 07:06:39;;;;;;;8.32;5.35;;;19.00;95.50;;;;;;4569140;25;20517;-54
2024/04/09 07:08:41;;;;;;;11.45;5.53;;;19.10;95.70;;;;;;4567620;26;20009;-54
2024/04/09 07:10:43;;;;;;;13.43;5.50;;;19.70;95.40;;;;;;4567929;25;20069;-54
2024/04/09 07:12:44;;;;;;;11.38;6.55;;;19.40;95.20;;;;;;4568565;26;20009;-58
2024/04/09 07:14:45;;;;;;;10.07;4.82;;;19.20;95.40;;;;;;4568638;25;19994;-53
2024/04/09 07:16:47;;;;;;;4.93;3.47;;;19.10;95.70;;;;;;4567109;25;19993;-55
2024/04/09 07:18:48;;;;;;;6.97;4.00;;;19.20;95.40;;;;;;4568286;25;20075;-56
2024/04/09 07:20:50;;;;;;;4.97;3.22;;;19.20;95.20;;;;;;4567020;25;20062;-57
2024/04/09 07:22:52;;;;;;;5.47;3.63;;;18.90;95.20;;;;;;4567372;25;20065;-58
2024/04/09 07:24:53;;;;;;;10.55;4.32;;;18.60;95.60;;;;;;4566610;25;20005;-55
2024/04/09 07:26:55;;;;;;;6.13;4.05;;;18.30;96.10;;;;;;4567178;25;20001;-56
2024/04/09 07:28:56;;;;;;;9.30;5.07;;;18.40;96.50;;;;;;4567422;25;20013;-57
2024/04/09 07:31:03;;;;;;;7.97;5.18;;;18.60;96.30;;;;;;4566372;25;20065;-56
2024/04/09 07:33:04;;;;;;;7.88;4.63;;;18.90;96.10;;;;;;4567870;25;20449;-56
2024/04/09 07:35:05;;;;;;;6.68;4.25;;;18.60;96.30;;;;;;4567476;26;20005;-58
2024/04/09 07:37:07;;;;;;;8.63;5.60;;;18.70;96.50;;;;;;4567847;25;20065;-56
2024/04/09 07:39:08;;;;;;;8.40;5.32;;;18.60;96.70;;;;;;4567251;25;20401;-58
2024/04/09 07:41:10;;;;;;;9.15;5.38;;;18.60;96.70;;;;;;4567977;25;20402;-52
2024/04/09 07:43:11;;;;;;;10.40;5.80;;;18.70;96.80;;;;;;4567230;26;20069;-55
2024/04/09 07:45:13;;;;;;;12.15;6.20;;;18.60;97.10;;;;;;4567381;25;20514;-55
2024/04/09 07:47:14;;;;;;;12.85;6.75;;;18.50;97.40;;;;;;4567022;26;19993;-55
2024/04/09 07:49:16;;;;;;;16.75;8.18;;;18.50;97.80;;;;;;4568084;25;20005;-57
2024/04/09 07:51:17;;;;;;;9.13;7.55;;;18.20;98.20;;;;;;4567481;25;20056;-53
2024/04/09 07:53:20;;;;;;;11.50;7.10;;;18.40;98.40;;;;;;4565667;26;20155;-55
2024/04/09 07:55:21;;;;;;;10.98;7.78;;;18.60;98.20;;;;;;4566610;25;20005;-57
2024/04/09 07:57:23;;;;;;;12.57;7.47;;;18.60;98.30;;;;;;4566663;25;20068;-55
2024/04/09 07:59:24;;;;;;;12.27;7.93;;;18.50;98.60;;;;;;4566665;25;20369;-54
2024/04/09 08:01:25;;;;;;;9.27;6.97;;;18.40;98.90;;;;;;4567090;26;20065;-55
2024/04/09 08:03:27;;;;;;;9.77;6.70;;;18.30;99.10;;;;;;4566584;25;20389;-57
2024/04/09 08:05:28;;;;;;;11.10;7.13;;;18.40;99.20;;;;;;4566807;25;20006;-58
2024/04/09 08:07:29;;;;;;;10.80;6.45;;;18.70;99.20;;;;;;4565823;25;20417;-56
2024/04/09 08:09:31;;;;;;;8.68;5.93;;;18.70;99.10;;;;;;4565583;25;20005;-54
2024/04/09 08:11:33;;;;;;;10.63;6.10;;;18.80;99.20;;;;;;4567560;25;20445;-52
2024/04/09 08:13:34;;;;;;;9.77;5.80;;;18.90;99.40;;;;;;4567531;26;20058;-55
2024/04/09 08:15:36;;;;;;;11.27;5.20;;;19.20;99.40;;;;;;4568106;25;20437;-56
2024/04/09 08:17:39;;;;;;;10.73;6.00;;;19.40;99.10;;;;;;4566340;25;20041;-55
2024/04/09 08:19:40;;;;;;;9.60;4.82;;;19.60;98.90;;;;;;4567016;25;20065;-57
2024/04/09 08:21:41;;;;;;;8.20;4.80;;;19.50;99.00;;;;;;4566131;25;20005;-56
2024/04/09 08:23:42;;;;;;;11.07;5.47;;;19.40;99.20;;;;;;4567047;25;20354;-56
2024/04/09 08:25:44;;;;;;;8.35;5.00;;;19.60;99.30;;;;;;4566459;25;20396;-58
2024/04/09 08:27:46;;;;;;;8.35;4.80;;;19.80;99.10;;;;;;4567307;25;20001;-56
2024/04/09 08:29:47;;;;;;;9.93;4.28;;;19.90;98.90;;;;;;4566297;25;20445;-56
2024/04/09 08:31:50;;;;;;;6.25;3.13;;;20.00;98.90;;;;;;4566357;25;20068;-56
2024/04/09 08:33:51;;;;;;;7.15;3.83;;;20.00;98.90;;;;;;4567679;25;20060;-54
2024/04/09 08:35:52;;;;;;;11.85;4.55;;;20.20;98.70;;;;;;4566479;25;19994;-56
2024/04/09 08:37:54;;;;;;;10.90;4.13;;;20.40;98.60;;;;;;4566968;25;20029;-57
2024/04/09 08:39:56;;;;;;;5.00;3.78;;;20.50;98.50;;;;;;4566607;26;20382;-56
2024/04/09 08:41:57;;;;;;;9.02;3.50;;;20.50;98.40;;;;;;4567345;25;20405;-54
2024/04/09 08:44:00;;;;;;;9.38;3.30;;;20.50;98.10;;;;;;4566316;25;19993;-55
2024/04/09 08:46:03;;;;;;;5.43;3.67;;;20.60;98.10;;;;;;4567932;25;19993;-50
2024/04/09 08:48:07;;;;;;;7.43;3.40;;;20.70;97.90;;;;;;4565506;25;19997;-57
2024/04/09 08:50:08;;;;;;;5.22;2.83;;;21.00;97.60;;;;;;4567202;25;20076;-51
2024/04/09 08:52:11;;;;;;;5.07;3.30;;;21.00;97.30;;;;;;4565991;25;20064;-54
2024/04/09 08:54:13;;;;;;;6.15;2.90;;;20.80;97.30;;;;;;4566701;25;19997;-56
2024/04/09 08:56:14;;;;;;;6.90;2.85;;;20.90;97.40;;;;;;4565640;25;19993;-53
2024/04/09 08:58:15;;;;;;;8.60;2.70;;;21.00;97.30;;;;;;4567764;26;19994;-58
2024/04/09 09:00:18;;;;;;;5.20;2.63;;;20.90;96.80;;;;;;4565951;25;20004;-56
2024/04/09 09:02:19;;;;;;;6.65;2.60;;;21.00;97.00;;;;;;4566818;25;20005;-56
2024/04/09 09:04:21;;;;;;;9.43;2.55;;;21.10;96.80;;;;;;4566550;26;20006;-58
2024/04/09 09:06:23;;;;;;;3.78;2.53;;;21.20;96.60;;;;;;4565876;25;20065;-55
2024/04/09 09:08:26;;;;;;;5.80;2.30;;;21.20;96.50;;;;;;4566218;25;20006;-54
2024/04/09 09:10:27;;;;;;;3.17;2.08;;;21.20;96.40;;;;;;4565991;25;20089;-56
2024/04/09 09:12:29;;;;;;;2.28;1.80;;;21.30;96.20;;;;;;4566044;25;20009;-55
2024/04/09 09:14:30;;;;;;;5.25;2.10;;;21.40;96.10;;;;;;4566316;26;20072;-56
2024/04/09 09:16:31;;;;;;;7.55;2.33;;;21.30;95.80;;;;;;4567401;26;20425;-55
2024/04/09 09:18:33;;;;;;;6.28;2.20;;;21.30;95.90;;;;;;4568296;26;19993;-55
2024/04/09 09:20:34;;;;;;;6.78;2.60;;;21.30;95.80;;;;;;4569989;25;19994;-53
2024/04/09 09:22:43;;;;;;;2.88;1.73;;;21.50;95.80;;;;;;4567840;25;20005;-55
2024/04/09 09:24:44;;;;;;;6.65;2.67;;;21.50;95.40;;;;;;4569154;25;20113;-55
2024/04/09 09:26:45;;;;;;;4.15;1.90;;;21.60;95.50;;;;;;4568741;25;20275;-57
2024/04/09 09:28:47;;;;;;;5.95;2.22;;;21.60;95.40;;;;;;4570406;26;20390;-52
2024/04/09 09:30:49;;;;;;;8.45;2.50;;;21.60;95.20;;;;;;4568296;25;19997;-55
2024/04/09 09:32:50;;;;;;;4.47;2.08;;;21.70;95.10;;;;;;4569584;25;20069;-57
2024/04/09 09:34:57;;;;;;;2.83;1.80;;;21.80;95.20;;;;;;4568324;25;20001;-56
2024/04/09 09:36:58;;;;;;;3.10;1.92;;;21.90;95.00;;;;;;4568842;25;19989;-58
2024/04/09 09:39:00;;;;;;;2.33;1.52;;;21.90;94.60;;;;;;4569016;26;20127;-55
2024/04/09 09:41:04;;;;;;;4.03;1.50;;;22.00;94.60;;;;;;4569277;26;19993;-56
2024/04/09 09:43:07;;;;;;;3.05;1.60;;;22.10;94.60;;;;;;4568719;25;20064;-54
2024/04/09 09:45:10;;;;;;;3.00;1.83;;;22.20;94.50;;;;;;4568566;25;20445;-57
2024/04/09 09:47:12;;;;;;;5.35;2.03;;;22.40;94.30;;;;;;4568211;25;20069;-54
2024/04/09 09:49:14;;;;;;;4.25;1.80;;;22.40;93.90;;;;;;4567887;25;20061;-58
2024/04/09 09:51:15;;;;;;;4.53;1.80;;;22.40;93.40;;;;;;4569234;25;20068;-56
2024/04/09 09:53:18;;;;;;;6.75;2.28;;;22.40;93.40;;;;;;4567648;25;20555;-55
2024/04/09 09:55:20;;;;;;;2.08;1.85;;;22.40;92.90;;;;;;4568968;25;20065;-55
2024/04/09 09:57:23;;;;;;;2.63;1.75;;;22.60;92.90;;;;;;4567614;25;20009;-56
2024/04/09 09:59:30;;;;;;;3.08;1.45;;;22.60;92.50;;;;;;4568969;25;20002;-56
2024/04/09 10:01:35;;;;;;;4.20;1.52;;;22.40;92.60;;;;;;4568804;26;20005;-58
2024/04/09 10:03:39;;;;;;;3.53;2.05;;;22.40;92.50;;;;;;4569380;25;20836;-56
2024/04/09 10:05:40;;;;;;;3.22;1.85;;;22.50;92.50;;;;;;4568322;26;20073;-58
2024/04/09 10:07:43;;;;;;;4.53;2.00;;;22.70;92.30;;;;;;4568739;25;20001;-51
2024/04/09 10:09:52;;;;;;;3.72;1.67;;;22.80;92.20;;;;;;4567685;25;20465;-54
2024/04/09 10:11:53;;;;;;;2.90;1.90;;;22.70;91.50;;;;;;4569817;26;20065;-53
2024/04/09 10:14:01;;;;;;;6.15;2.10;;;22.70;92.00;;;;;;4567937;25;20390;-55
2024/04/09 10:16:03;;;;;;;3.67;1.75;;;22.60;92.00;;;;;;4568394;25;19997;-57
2024/04/09 10:18:04;;;;;;;4.03;2.45;;;22.60;92.20;;;;;;4568210;25;20073;-54
2024/04/09 10:20:16;;;;;;;3.47;1.85;;;22.70;92.00;;;;;;4567948;25;20005;-55
2024/04/09 10:22:18;;;;;;;4.53;1.80;;;22.80;91.80;;;;;;4567780;25;19994;-52
2024/04/09 10:24:19;;;;;;;3.92;1.90;;;22.90;91.70;;;;;;4568556;26;19993;-55
2024/04/09 10:26:20;;;;;;;4.57;2.42;;;22.90;91.80;;;;;;4569275;26;20005;-52
2024/04/09 10:28:33;;;;;;;6.38;2.00;;;22.90;91.80;;;;;;4566648;25;20117;-57
2024/04/09 10:30:37;;;;;;;3.47;1.55;;;23.00;91.80;;;;;;4568492;26;20387;-55
2024/04/09 10:32:38;;;;;;;6.78;1.70;;;23.10;91.30;;;;;;4567655;25;19997;-56
2024/04/09 10:34:41;;;;;;;4.78;2.28;;;23.00;91.00;;;;;;4568964;25;20005;-55